createdAt,value
2022-08-02T00:00:36.106Z,2.38
2022-08-02T00:03:03.292Z,1.98
2022-08-02T00:05:30.506Z,2.15
2022-08-02T00:07:57.550Z,2.20
2022-08-02T00:10:26.081Z,2.22
2022-08-02T00:12:53.867Z,2.72
2022-08-02T00:15:22.777Z,2.55
2022-08-02T00:17:51.404Z,2.42
2022-08-02T00:20:18.463Z,2.28
2022-08-02T00:22:45.529Z,2.55
2022-08-02T00:25:12.661Z,2.55
2022-08-02T00:27:39.678Z,2.65
2022-08-02T00:30:07.457Z,2.88
2022-08-02T00:32:35.021Z,2.85
2022-08-02T00:35:02.143Z,2.50
2022-08-02T00:37:29.185Z,3.08
2022-08-02T00:39:59.483Z,3.55
2022-08-02T00:42:27.522Z,3.05
2022-08-02T00:44:55.253Z,3.25
2022-08-02T00:47:23.001Z,3.00
2022-08-02T00:49:50.397Z,3.15
2022-08-02T00:52:17.419Z,2.90
2022-08-02T00:54:44.492Z,2.60
2022-08-02T00:57:11.799Z,2.90
2022-08-02T00:59:38.891Z,3.05
2022-08-02T01:02:06.016Z,3.05
2022-08-02T01:04:34.339Z,2.90
2022-08-02T01:07:12.083Z,4.10
2022-08-02T01:09:42.431Z,2.53
2022-08-02T01:12:10.883Z,3.42
2022-08-02T01:14:40.592Z,2.88
2022-08-02T01:17:26.993Z,3.40
2022-08-02T01:20:04.462Z,3.17
2022-08-02T01:23:11.965Z,3.00
2022-08-02T01:25:47.869Z,2.85
2022-08-02T01:28:41.032Z,3.05
2022-08-02T01:31:30.063Z,2.90
2022-08-02T01:34:04.446Z,3.15
2022-08-02T01:36:40.277Z,3.22
2022-08-02T01:39:12.306Z,3.03
2022-08-02T01:41:59.112Z,3.05
2022-08-02T01:44:30.447Z,2.90
2022-08-02T01:47:02.034Z,2.83
2022-08-02T01:49:32.733Z,3.33
2022-08-02T01:52:21.722Z,2.85
2022-08-02T01:55:07.203Z,3.25
2022-08-02T01:57:42.095Z,3.03
2022-08-02T02:00:11.423Z,2.30
2022-08-02T02:02:42.185Z,2.88
2022-08-02T02:05:15.453Z,2.95
2022-08-02T02:07:44.527Z,2.47
2022-08-02T02:10:16.719Z,2.80
2022-08-02T02:12:46.660Z,2.63
2022-08-02T02:15:14.329Z,2.75
2022-08-02T02:18:10.566Z,2.80
2022-08-02T02:20:32.440Z,3.10
2022-08-02T02:22:59.781Z,2.65
2022-08-02T02:25:34.271Z,3.95
2022-08-02T02:28:14.121Z,2.50
2022-08-02T02:30:47.424Z,3.17
2022-08-02T02:33:18.126Z,2.83
2022-08-02T02:35:47.741Z,2.53
2022-08-02T02:38:19.614Z,3.30
2022-08-02T02:40:47.807Z,3.22
2022-08-02T02:43:17.220Z,2.88
2022-08-02T02:45:45.236Z,2.83
2022-08-02T02:48:14.606Z,2.75
2022-08-02T02:50:43.909Z,2.50
2022-08-02T02:53:13.887Z,2.78
2022-08-02T02:55:42.099Z,2.72
2022-08-02T02:58:29.815Z,3.00
2022-08-02T03:01:16.562Z,2.75
2022-08-02T03:03:44.859Z,3.20
2022-08-02T03:06:15.634Z,3.58
2022-08-02T03:08:43.377Z,2.90
2022-08-02T03:11:11.472Z,2.30
2022-08-02T03:13:39.682Z,3.00
2022-08-02T03:16:07.472Z,3.03
2022-08-02T03:18:40.713Z,2.83
2022-08-02T03:21:11.847Z,2.97
2022-08-02T03:23:42.258Z,3.13
2022-08-02T03:26:10.290Z,2.65
2022-08-02T03:28:37.503Z,2.92
2022-08-02T03:31:05.740Z,3.67
2022-08-02T03:33:34.507Z,2.28
2022-08-02T03:36:06.861Z,2.97
2022-08-02T03:38:36.356Z,3.42
2022-08-02T03:41:05.555Z,3.22
2022-08-02T03:43:34.354Z,3.30
2022-08-02T03:46:04.544Z,3.13
2022-08-02T03:48:36.256Z,3.45
2022-08-02T03:51:04.527Z,3.28
2022-08-02T03:53:32.025Z,3.45
2022-08-02T03:56:00.011Z,3.55
2022-08-02T03:58:27.410Z,3.67
2022-08-02T04:00:57.948Z,3.35
2022-08-02T04:03:28.171Z,3.85
2022-08-02T04:06:01.061Z,3.70
2022-08-02T04:08:37.986Z,4.00
2022-08-02T04:11:32.543Z,3.38
2022-08-02T04:14:01.840Z,3.45
2022-08-02T04:16:38.076Z,3.60
2022-08-02T04:19:09.106Z,3.95
2022-08-02T04:21:51.675Z,3.63
2022-08-02T04:24:32.003Z,3.17
2022-08-02T04:27:19.415Z,3.67
2022-08-02T04:29:49.829Z,3.70
2022-08-02T04:32:17.399Z,3.58
2022-08-02T04:35:11.262Z,3.97
2022-08-02T04:37:34.494Z,4.43
2022-08-02T04:40:01.686Z,3.92
2022-08-02T04:42:28.843Z,4.18
2022-08-02T04:44:58.475Z,3.53
2022-08-02T04:48:02.627Z,3.63
2022-08-02T04:50:14.642Z,3.78
2022-08-02T04:52:45.683Z,3.97
2022-08-02T04:55:13.020Z,4.35
2022-08-02T04:57:56.229Z,4.15
2022-08-02T05:00:25.440Z,4.00
2022-08-02T05:02:52.669Z,3.97
2022-08-02T05:05:20.989Z,3.67
2022-08-02T05:07:48.340Z,3.90
2022-08-02T05:10:15.411Z,3.33
2022-08-02T05:12:42.722Z,3.85
2022-08-02T05:15:12.969Z,3.83
2022-08-02T05:17:47.983Z,3.80
2022-08-02T05:20:17.708Z,3.38
2022-08-02T05:22:44.925Z,3.50
2022-08-02T05:25:12.293Z,3.42
2022-08-02T05:27:39.354Z,3.22
2022-08-02T05:30:07.594Z,3.70
2022-08-02T05:32:49.648Z,3.33
2022-08-02T05:35:25.274Z,3.45
2022-08-02T05:37:52.340Z,3.38
2022-08-02T05:40:25.884Z,3.55
2022-08-02T05:45:23.988Z,2.67
2022-08-02T05:47:52.055Z,2.70
2022-08-02T05:50:19.837Z,2.67
2022-08-02T05:52:51.026Z,2.92
2022-08-02T05:55:26.399Z,2.97
2022-08-02T05:58:09.725Z,2.83
2022-08-02T06:00:39.778Z,3.08
2022-08-02T06:03:26.563Z,2.90
2022-08-02T06:06:05.505Z,2.90
2022-08-02T06:08:47.636Z,2.85
2022-08-02T06:11:22.003Z,2.78
2022-08-02T06:13:50.655Z,3.03
2022-08-02T06:16:32.097Z,2.92
2022-08-02T06:19:00.922Z,3.25
2022-08-02T06:22:42.028Z,3.25
2022-08-02T06:24:22.959Z,3.53
2022-08-02T06:26:57.336Z,2.95
2022-08-02T06:29:27.373Z,3.72
2022-08-02T06:31:56.103Z,2.63
2022-08-02T06:34:23.424Z,3.38
2022-08-02T06:37:15.841Z,3.45
2022-08-02T06:39:49.808Z,3.05
2022-08-02T06:42:50.915Z,3.85
2022-08-02T06:45:19.773Z,3.50
2022-08-02T06:47:46.875Z,3.80
2022-08-02T06:50:14.001Z,2.85
2022-08-02T06:52:41.286Z,3.38
2022-08-02T06:55:08.888Z,3.42
2022-08-02T06:57:36.066Z,3.53
2022-08-02T07:00:09.529Z,4.15
2022-08-02T07:02:37.119Z,4.00
2022-08-02T07:05:05.818Z,3.97
2022-08-02T07:07:33.326Z,3.70
2022-08-02T07:10:01.907Z,4.22
2022-08-02T07:12:30.952Z,4.35
2022-08-02T07:14:59.810Z,4.80
2022-08-02T07:17:27.503Z,4.20
2022-08-02T07:19:57.105Z,4.22
2022-08-02T07:22:26.935Z,4.55
2022-08-02T07:24:59.262Z,4.28
2022-08-02T07:27:28.108Z,4.80
2022-08-02T07:29:57.832Z,4.88
2022-08-02T07:32:28.112Z,5.75
2022-08-02T07:34:57.742Z,5.32
2022-08-02T07:37:51.092Z,5.60
2022-08-02T07:40:19.837Z,5.35
2022-08-02T07:42:56.464Z,5.38
2022-08-02T07:45:28.001Z,5.80
2022-08-02T07:47:57.038Z,5.32
2022-08-02T07:50:26.760Z,5.68
2022-08-02T07:52:57.715Z,6.30
2022-08-02T07:55:39.726Z,6.20
2022-08-02T07:58:12.870Z,5.68
2022-08-02T08:00:43.244Z,6.97
2022-08-02T08:03:10.592Z,5.70
2022-08-02T08:05:37.643Z,6.57
2022-08-02T08:08:08.818Z,6.57
2022-08-02T08:10:37.211Z,7.00
2022-08-02T08:13:07.189Z,6.20
2022-08-02T08:15:37.158Z,7.57
2022-08-02T08:18:05.770Z,6.97
2022-08-02T08:20:33.135Z,7.88
2022-08-02T08:23:00.352Z,7.35
2022-08-02T08:25:27.705Z,7.60
2022-08-02T08:27:57.632Z,6.80
2022-08-02T08:30:25.838Z,6.80
2022-08-02T08:32:52.968Z,7.20
2022-08-02T08:35:23.397Z,7.10
2022-08-02T08:37:50.829Z,6.28
2022-08-02T08:40:21.256Z,6.25
2022-08-02T08:42:48.448Z,5.88
2022-08-02T08:45:17.827Z,5.53
2022-08-02T08:48:06.324Z,5.00
2022-08-02T08:50:39.530Z,3.28
2022-08-02T08:53:08.676Z,3.25
2022-08-02T08:55:39.315Z,2.60
2022-08-02T08:58:06.543Z,2.30
2022-08-02T09:00:38.047Z,2.25
2022-08-02T09:03:08.461Z,2.20
2022-08-02T09:05:39.647Z,2.05
2022-08-02T09:08:07.394Z,1.90
2022-08-02T09:10:54.383Z,2.03
2022-08-02T09:13:45.299Z,2.30
2022-08-02T09:16:14.409Z,2.20
2022-08-02T09:18:47.631Z,2.63
2022-08-02T09:21:16.900Z,2.28
2022-08-02T09:23:52.715Z,2.20
2022-08-02T09:26:22.478Z,2.83
2022-08-02T09:28:52.225Z,2.15
2022-08-02T09:31:23.775Z,2.00
2022-08-02T09:33:57.353Z,2.30
2022-08-02T09:39:06.417Z,3.00
2022-08-02T09:41:41.215Z,3.33
2022-08-02T09:44:16.853Z,2.85
2022-08-02T09:46:46.172Z,3.45
2022-08-02T09:49:18.571Z,3.30
2022-08-02T09:51:46.677Z,3.42
2022-08-02T09:54:23.727Z,3.42
2022-08-02T09:56:57.068Z,3.10
2022-08-02T09:59:26.657Z,3.00
2022-08-02T10:02:01.430Z,3.92
2022-08-02T10:04:34.509Z,3.58
2022-08-02T10:07:21.745Z,4.43
2022-08-02T10:09:52.055Z,4.13
2022-08-02T10:12:23.020Z,4.30
2022-08-02T10:14:56.128Z,3.72
2022-08-02T10:17:27.547Z,4.28
2022-08-02T10:20:02.332Z,3.40
2022-08-02T10:22:36.305Z,3.95
2022-08-02T10:25:08.975Z,3.40
2022-08-02T10:27:55.445Z,3.87
2022-08-02T10:30:27.361Z,3.00
2022-08-02T10:32:57.065Z,4.32
2022-08-02T10:35:26.894Z,3.40
2022-08-02T10:38:01.051Z,3.58
2022-08-02T10:40:56.090Z,2.70
2022-08-02T10:43:32.084Z,3.20
2022-08-02T10:46:21.982Z,4.30
2022-08-02T10:49:18.429Z,3.00
2022-08-02T10:51:52.068Z,3.20
2022-08-02T10:54:20.886Z,2.45
2022-08-02T10:56:50.744Z,2.03
2022-08-02T10:59:26.837Z,2.67
2022-08-02T11:02:02.365Z,2.42
2022-08-02T11:04:41.504Z,2.40
2022-08-02T11:07:18.442Z,2.60
2022-08-02T11:09:47.614Z,1.63
2022-08-02T11:12:17.643Z,2.05
2022-08-02T11:14:58.220Z,2.42
2022-08-02T11:17:28.790Z,1.58
2022-08-02T11:20:11.129Z,2.53
2022-08-02T11:22:42.735Z,1.90
2022-08-02T11:25:29.704Z,1.40
2022-08-02T11:28:11.053Z,1.42
2022-08-02T11:30:39.201Z,1.60
2022-08-02T11:33:06.802Z,1.25
2022-08-02T11:35:39.988Z,1.42
2022-08-02T11:38:16.177Z,1.42
2022-08-02T11:40:45.042Z,1.23
2022-08-02T11:43:23.482Z,1.33
2022-08-02T11:45:52.502Z,1.33
2022-08-02T11:48:35.759Z,1.38
2022-08-02T11:51:10.768Z,1.15
2022-08-02T11:53:45.933Z,1.40
2022-08-02T11:56:14.324Z,1.02
2022-08-02T11:59:08.871Z,0.85
2022-08-02T12:01:46.303Z,0.93
2022-08-02T12:04:22.923Z,0.80
2022-08-02T12:06:59.867Z,0.80
2022-08-02T12:09:29.618Z,0.88
2022-08-02T12:11:59.155Z,0.60
2022-08-02T12:14:28.979Z,1.00
2022-08-02T12:17:18.408Z,1.20
2022-08-02T12:19:45.700Z,1.13
2022-08-02T12:22:13.141Z,0.90
2022-08-02T12:24:44.799Z,1.13
2022-08-02T12:27:38.079Z,0.90
2022-08-02T12:30:13.627Z,1.10
2022-08-02T12:32:41.354Z,0.80
2022-08-02T12:35:26.868Z,0.50
2022-08-02T12:37:56.155Z,0.55
2022-08-02T12:40:27.339Z,0.90
2022-08-02T12:43:05.087Z,0.98
2022-08-02T12:45:48.869Z,0.90
2022-08-02T12:48:36.687Z,0.52
2022-08-02T12:51:22.610Z,0.80
2022-08-02T12:53:59.862Z,1.13
2022-08-02T12:56:29.572Z,1.10
2022-08-02T12:58:57.758Z,1.13
2022-08-02T13:01:27.671Z,0.85
2022-08-02T13:04:09.182Z,1.23
2022-08-02T13:06:43.996Z,1.30
2022-08-02T13:09:17.134Z,1.33
2022-08-02T13:11:44.976Z,0.88
2022-08-02T13:14:13.920Z,1.00
2022-08-02T13:16:42.392Z,0.93
2022-08-02T13:19:09.590Z,0.98
2022-08-02T13:21:41.553Z,1.05
2022-08-02T13:24:40.030Z,1.10
2022-08-02T13:27:09.173Z,1.40
2022-08-02T13:29:37.864Z,1.15
2022-08-02T13:32:07.998Z,1.60
2022-08-02T13:34:36.127Z,1.27
2022-08-02T13:37:04.813Z,0.98
2022-08-02T13:39:31.897Z,1.08
2022-08-02T13:41:58.960Z,1.65
2022-08-02T13:44:28.776Z,1.10
2022-08-02T13:46:57.560Z,1.67
2022-08-02T13:49:50.970Z,1.38
2022-08-02T13:52:13.143Z,1.02
2022-08-02T13:54:40.551Z,1.25
2022-08-02T13:57:07.687Z,1.15
2022-08-02T13:59:57.227Z,1.02
2022-08-02T14:02:27.902Z,0.98
2022-08-02T14:04:58.552Z,1.35
2022-08-02T14:07:28.657Z,0.75
2022-08-02T14:09:57.398Z,0.77
2022-08-02T14:12:24.508Z,0.50
2022-08-02T14:14:52.533Z,0.90
2022-08-02T14:17:21.611Z,0.85
2022-08-02T14:19:50.869Z,1.17
2022-08-02T14:22:17.956Z,0.88
2022-08-02T14:24:45.261Z,1.17
2022-08-02T14:27:12.505Z,0.85
2022-08-02T14:29:39.659Z,0.80
2022-08-02T14:32:07.124Z,1.27
2022-08-02T14:34:34.677Z,0.90
2022-08-02T14:37:01.899Z,1.10
2022-08-02T14:39:43.589Z,1.00
2022-08-02T14:42:16.448Z,1.00
2022-08-02T14:44:43.861Z,0.70
2022-08-02T14:47:11.002Z,0.95
2022-08-02T14:49:41.510Z,1.00
2022-08-02T14:52:10.418Z,0.60
2022-08-02T14:54:37.748Z,2.50
2022-08-02T14:57:08.044Z,2.67
2022-08-02T14:59:35.752Z,1.02
2022-08-02T15:02:11.844Z,1.20
2022-08-02T15:04:42.966Z,1.13
2022-08-02T15:07:11.124Z,1.33
2022-08-02T15:09:39.887Z,1.77
2022-08-02T15:12:08.712Z,1.63
2022-08-02T15:14:36.514Z,1.20
2022-08-02T15:17:04.578Z,1.30
2022-08-02T15:19:56.156Z,0.77
2022-08-02T15:22:20.086Z,1.20
2022-08-02T15:24:48.054Z,1.30
2022-08-02T15:27:15.975Z,1.10
2022-08-02T15:29:44.453Z,1.08
2022-08-02T15:32:13.204Z,1.13
2022-08-02T15:34:40.574Z,1.00
2022-08-02T15:37:07.947Z,1.33
2022-08-02T15:39:38.429Z,1.48
2022-08-02T15:42:08.343Z,1.15
2022-08-02T15:44:38.664Z,1.38
2022-08-02T15:47:06.825Z,1.60
2022-08-02T15:49:38.105Z,1.48
2022-08-02T15:52:07.903Z,0.93
2022-08-02T15:54:37.790Z,0.73
2022-08-02T15:57:06.150Z,1.20
2022-08-02T15:59:33.284Z,1.05
2022-08-02T16:02:00.618Z,1.10
2022-08-02T16:04:27.792Z,1.17
2022-08-02T16:06:56.158Z,1.15
2022-08-02T16:09:23.366Z,0.90
2022-08-02T16:11:51.072Z,1.17
2022-08-02T16:14:18.172Z,0.90
2022-08-02T16:16:45.363Z,0.80
2022-08-02T16:19:47.516Z,1.08
2022-08-02T16:21:59.402Z,1.30
2022-08-02T16:24:26.971Z,2.53
2022-08-02T16:26:54.366Z,1.10
2022-08-02T16:29:21.903Z,1.15
2022-08-02T16:31:51.487Z,1.35
2022-08-02T16:34:19.747Z,1.02
2022-08-02T16:36:46.883Z,1.63
2022-08-02T16:39:14.082Z,0.93
2022-08-02T16:41:51.370Z,1.20
2022-08-02T16:44:27.556Z,0.85
2022-08-02T16:47:00.843Z,1.40
2022-08-02T16:50:07.259Z,0.75
2022-08-02T16:52:18.978Z,1.38
2022-08-02T16:54:49.873Z,0.70
2022-08-02T16:57:21.027Z,1.42
2022-08-02T16:59:57.920Z,0.82
2022-08-02T17:02:28.003Z,0.93
2022-08-02T17:04:58.768Z,1.23
2022-08-02T17:08:15.238Z,1.33
2022-08-02T17:10:18.895Z,1.00
2022-08-02T17:12:47.051Z,1.08
2022-08-02T17:15:47.041Z,0.85
2022-08-02T17:18:06.090Z,1.10
2022-08-02T17:20:36.324Z,0.80
2022-08-02T17:23:05.692Z,1.00
2022-08-02T17:25:32.791Z,1.00
2022-08-02T17:27:59.902Z,0.82
2022-08-02T17:30:28.253Z,1.00
2022-08-02T17:32:57.843Z,0.75
2022-08-02T17:35:43.875Z,1.30
2022-08-02T17:38:18.136Z,1.42
2022-08-02T17:41:00.422Z,0.80
2022-08-02T17:43:31.790Z,0.98
2022-08-02T17:46:02.478Z,0.65
2022-08-02T17:48:55.109Z,1.10
2022-08-02T17:52:16.019Z,1.23
2022-08-02T17:54:11.825Z,1.30
2022-08-02T17:56:42.650Z,1.55
2022-08-02T17:59:20.769Z,1.13
2022-08-02T18:01:56.164Z,1.65
2022-08-02T18:04:27.601Z,1.40
2022-08-02T18:07:03.907Z,1.45
2022-08-02T18:09:32.032Z,1.35
2022-08-02T18:11:59.205Z,1.20
2022-08-02T18:14:27.728Z,1.05
2022-08-02T18:16:56.888Z,1.20
2022-08-02T18:19:42.659Z,1.10
2022-08-02T18:22:17.839Z,1.27
2022-08-02T18:24:52.639Z,1.30
2022-08-02T18:27:22.482Z,1.33
2022-08-02T18:30:00.393Z,1.60
2022-08-02T18:33:57.002Z,0.80
2022-08-02T18:35:25.885Z,1.67
2022-08-02T18:38:03.566Z,1.40
2022-08-02T18:40:31.784Z,1.60
2022-08-02T18:42:59.135Z,1.00
2022-08-02T18:45:36.888Z,1.20
2022-08-02T18:48:17.651Z,1.35
2022-08-02T18:50:44.845Z,1.02
2022-08-02T18:53:14.262Z,0.93
2022-08-02T18:56:02.895Z,1.48
2022-08-02T18:58:31.064Z,1.40
2022-08-02T19:01:00.798Z,1.10
2022-08-02T19:03:49.359Z,1.33
2022-08-02T19:06:19.705Z,1.95
2022-08-02T19:09:05.250Z,1.63
2022-08-02T19:11:38.669Z,1.30
2022-08-02T19:14:08.415Z,1.48
2022-08-02T19:16:38.396Z,1.38
2022-08-02T19:19:08.939Z,1.20
2022-08-02T19:22:17.777Z,1.50
2022-08-02T19:24:23.526Z,1.50
2022-08-02T19:26:53.689Z,1.88
2022-08-02T19:29:25.092Z,1.85
2022-08-02T19:32:42.032Z,1.58
2022-08-02T19:35:01.978Z,1.10
2022-08-02T19:37:36.970Z,1.55
2022-08-02T19:40:07.902Z,1.30
2022-08-02T19:44:21.766Z,1.70
2022-08-02T19:45:45.078Z,1.35
2022-08-02T19:48:14.874Z,1.52
2022-08-02T19:50:44.192Z,1.70
2022-08-02T19:53:17.439Z,1.35
2022-08-02T19:56:00.260Z,1.88
2022-08-02T19:58:30.412Z,1.65
2022-08-02T20:00:58.239Z,1.08
2022-08-02T20:03:52.135Z,1.52
2022-08-02T20:06:14.801Z,0.95
2022-08-02T20:08:53.438Z,1.20
2022-08-02T20:11:24.640Z,1.42
2022-08-02T20:13:53.411Z,1.23
2022-08-02T20:16:27.946Z,1.30
2022-08-02T20:18:57.405Z,1.27
2022-08-02T20:21:35.824Z,1.52
2022-08-02T20:24:09.321Z,1.10
2022-08-02T20:29:43.045Z,1.65
2022-08-02T20:32:12.710Z,0.93
2022-08-02T20:34:40.089Z,1.15
2022-08-02T20:37:59.926Z,1.63
2022-08-02T20:39:56.822Z,1.67
2022-08-02T20:42:24.722Z,1.40
2022-08-02T20:44:57.399Z,1.58
2022-08-02T20:47:39.586Z,0.90
2022-08-02T20:50:31.561Z,2.10
2022-08-02T20:53:00.591Z,1.42
2022-08-02T20:55:31.212Z,1.45
2022-08-02T20:58:18.512Z,0.98
2022-08-02T21:00:47.701Z,0.95
2022-08-02T21:03:16.191Z,1.10
2022-08-02T21:05:54.658Z,1.27
2022-08-02T21:08:24.211Z,1.38
2022-08-02T21:10:53.113Z,1.52
2022-08-02T21:13:24.367Z,1.75
2022-08-02T21:15:58.860Z,1.85
2022-08-02T21:18:38.356Z,1.48
2022-08-02T21:21:09.701Z,1.10
2022-08-02T21:23:37.652Z,1.15
2022-08-02T21:26:09.081Z,1.33
2022-08-02T21:28:43.895Z,1.30
2022-08-02T21:31:15.524Z,0.95
2022-08-02T21:33:57.724Z,1.23
2022-08-02T21:36:30.997Z,1.02
2022-08-02T21:39:09.052Z,1.33
2022-08-02T21:41:39.800Z,1.10
2022-08-02T21:44:18.576Z,1.92
2022-08-02T21:46:46.752Z,1.40
2022-08-02T21:49:18.787Z,1.25
2022-08-02T21:51:49.520Z,1.48
2022-08-02T21:57:15.631Z,2.17
2022-08-02T21:59:45.925Z,1.10
2022-08-02T22:02:15.264Z,1.10
2022-08-02T22:04:47.424Z,1.35
2022-08-02T22:07:17.565Z,1.63
2022-08-02T22:09:52.698Z,1.10
2022-08-02T22:12:20.508Z,0.90
2022-08-02T22:14:54.560Z,1.00
2022-08-02T22:17:51.686Z,1.20
2022-08-02T22:20:18.318Z,1.00
2022-08-02T22:22:50.123Z,0.85
2022-08-02T22:25:27.185Z,1.20
2022-08-02T22:28:36.586Z,1.20
2022-08-02T22:30:58.142Z,1.40
2022-08-02T22:33:59.869Z,1.27
2022-08-02T22:36:30.943Z,1.60
2022-08-02T22:38:58.967Z,1.30
2022-08-02T22:42:00.233Z,0.95
2022-08-02T22:44:15.056Z,1.25
2022-08-02T22:46:46.186Z,0.90
2022-08-02T22:49:36.838Z,1.10
2022-08-02T22:52:00.383Z,1.02
2022-08-02T22:54:27.443Z,1.13
2022-08-02T22:56:56.037Z,1.05
2022-08-02T22:59:03.801Z,1.42
2022-08-02T22:59:07.211Z,1.07
2022-08-02T22:59:35.978Z,1.20
2022-08-02T23:02:08.169Z,0.90
2022-08-02T23:04:36.733Z,1.35
2022-08-02T23:07:06.997Z,1.25
2022-08-02T23:09:36.660Z,1.00
2022-08-02T23:12:04.941Z,1.05
2022-08-02T23:14:31.993Z,1.17
2022-08-02T23:17:18.745Z,1.02
2022-08-02T23:19:51.806Z,1.02
2022-08-02T23:22:29.807Z,1.10
2022-08-02T23:25:00.734Z,1.13
2022-08-02T23:27:29.093Z,1.35
2022-08-02T23:30:00.393Z,1.05
2022-08-02T23:32:28.031Z,0.93
2022-08-02T23:34:57.882Z,1.05
2022-08-02T23:37:26.156Z,1.13
2022-08-02T23:39:53.340Z,1.20
2022-08-02T23:42:23.258Z,0.90
2022-08-02T23:44:56.517Z,1.10
2022-08-02T23:47:23.661Z,1.17
2022-08-02T23:49:51.789Z,1.20
2022-08-02T23:52:19.189Z,0.90
2022-08-02T23:54:47.107Z,1.83
2022-08-02T23:57:20.921Z,1.00
2022-08-02T23:59:51.676Z,1.13
